Time;durP1;ratioP1;P1;durP2;ratioP2;P2;SDS_P1;SDS_P2;PMS_P1;PMS_P2;Temp;Humidity;BMP_temperature;BMP_pressure;BME280_temperature;BME280_humidity;BME280_pressure;Samples;Min_cycle;Max_cycle;Signal;HPM_P1;HPM_P2
2022/10/10 00:01:30;;;;;;;5.00;3.10;;;8.40;99.90;;;;;;5048074;28;20651;-48
2022/10/10 00:03:57;;;;;;;7.43;3.90;;;8.40;99.90;;;;;;5047656;28;20450;-49
2022/10/10 00:06:24;;;;;;;4.93;3.03;;;8.40;99.90;;;;;;5049631;28;20540;-47
2022/10/10 00:08:51;;;;;;;7.13;3.47;;;8.40;99.90;;;;;;5041184;28;20466;-48
2022/10/10 00:11:21;;;;;;;5.50;3.63;;;8.40;99.90;;;;;;5046967;28;20535;-49
2022/10/10 00:13:48;;;;;;;7.40;3.23;;;8.40;99.90;;;;;;5042149;28;20559;-48
2022/10/10 00:16:16;;;;;;;12.53;3.30;;;8.40;99.90;;;;;;5049161;28;20490;-48
2022/10/10 00:18:44;;;;;;;4.03;2.30;;;8.40;99.90;;;;;;5049712;28;20450;-48
2022/10/10 00:21:11;;;;;;;7.83;3.27;;;8.40;99.90;;;;;;5041435;28;20613;-48
2022/10/10 00:23:38;;;;;;;9.03;2.90;;;8.30;99.90;;;;;;5048129;28;20469;-47
2022/10/10 00:26:05;;;;;;;5.27;2.73;;;8.40;99.90;;;;;;5045769;28;20857;-48
2022/10/10 00:28:31;;;;;;;3.80;2.60;;;8.30;99.90;;;;;;5037780;28;20490;-48
2022/10/10 00:30:58;;;;;;;10.23;2.43;;;8.20;99.90;;;;;;5046710;28;20463;-48
2022/10/10 00:33:25;;;;;;;5.93;2.40;;;8.30;99.90;;;;;;5042615;28;20487;-48
2022/10/10 00:35:53;;;;;;;6.40;2.80;;;8.30;99.90;;;;;;5043975;28;20462;-48
2022/10/10 00:38:19;;;;;;;3.80;2.90;;;8.30;99.90;;;;;;5049496;28;20509;-48
2022/10/10 00:40:48;;;;;;;8.37;3.20;;;8.30;99.90;;;;;;5045363;28;20489;-47
2022/10/10 00:43:15;;;;;;;9.10;3.00;;;8.30;99.90;;;;;;5035179;28;20552;-48
2022/10/10 00:45:44;;;;;;;5.70;2.90;;;8.20;99.90;;;;;;5044763;28;20896;-48
2022/10/10 00:48:14;;;;;;;4.90;2.47;;;8.20;99.90;;;;;;5038924;28;20478;-48
2022/10/10 00:50:44;;;;;;;6.10;2.73;;;8.20;99.90;;;;;;5042488;28;20865;-48
2022/10/10 00:53:14;;;;;;;5.73;2.40;;;8.10;99.90;;;;;;5042997;28;20531;-49
2022/10/10 00:55:41;;;;;;;6.10;2.00;;;8.10;99.90;;;;;;5040959;28;20458;-49
2022/10/10 00:58:08;;;;;;;5.40;2.77;;;8.10;99.90;;;;;;5042429;28;20988;-48
2022/10/10 01:00:35;;;;;;;5.63;2.73;;;8.10;99.90;;;;;;5047268;28;20493;-49
2022/10/10 01:03:02;;;;;;;4.10;2.40;;;8.10;99.90;;;;;;5045919;28;20555;-49
2022/10/10 01:05:29;;;;;;;4.80;2.53;;;8.10;99.90;;;;;;5043531;28;20928;-48
2022/10/10 01:07:56;;;;;;;7.03;2.43;;;8.10;99.90;;;;;;5041521;28;20514;-49
2022/10/10 01:10:24;;;;;;;5.23;3.00;;;8.10;99.90;;;;;;5045736;28;20493;-49
2022/10/10 01:13:05;;;;;;;6.60;2.53;;;8.10;99.90;;;;;;5040999;28;20525;-49
2022/10/10 01:15:42;;;;;;;4.53;2.17;;;8.00;99.90;;;;;;5043740;28;20494;-49
2022/10/10 01:18:18;;;;;;;5.20;2.70;;;8.00;99.90;;;;;;5042522;28;20481;-48
2022/10/10 01:21:09;;;;;;;5.53;2.80;;;8.10;99.90;;;;;;5040283;28;20497;-49
2022/10/10 01:23:54;;;;;;;6.37;3.40;;;8.00;99.90;;;;;;5046251;28;20840;-49
2022/10/10 01:26:46;;;;;;;2.83;2.57;;;8.00;99.90;;;;;;5046883;28;20485;-48
2022/10/10 01:29:20;;;;;;;5.63;2.67;;;8.00;99.90;;;;;;5039346;28;20494;-48
2022/10/10 01:31:51;;;;;;;8.33;2.87;;;8.00;99.90;;;;;;5047427;28;20505;-48
2022/10/10 01:34:22;;;;;;;6.97;3.20;;;8.00;99.90;;;;;;5045375;28;20831;-49
2022/10/10 01:36:56;;;;;;;5.10;2.87;;;8.00;99.90;;;;;;5049181;28;20531;-49
2022/10/10 01:39:29;;;;;;;5.97;3.30;;;8.00;99.90;;;;;;5045126;28;20512;-49
2022/10/10 01:42:00;;;;;;;4.47;2.97;;;8.00;99.90;;;;;;5043545;28;21178;-48
2022/10/10 01:44:28;;;;;;;6.73;2.67;;;7.90;99.90;;;;;;5041429;28;20774;-50
2022/10/10 01:46:54;;;;;;;6.33;2.93;;;8.00;99.90;;;;;;5043647;28;20915;-50
2022/10/10 01:49:28;;;;;;;5.00;2.90;;;7.90;99.90;;;;;;5043287;28;20459;-48
2022/10/10 01:52:06;;;;;;;8.87;3.60;;;7.90;99.90;;;;;;5042057;28;20535;-49
2022/10/10 01:54:41;;;;;;;5.77;3.80;;;7.90;99.90;;;;;;5041615;28;20968;-47
2022/10/10 01:57:20;;;;;;;2.70;2.10;;;7.90;99.90;;;;;;5046063;28;22218;-48
2022/10/10 01:59:56;;;;;;;4.20;2.40;;;7.90;99.90;;;;;;5039491;28;20515;-48
2022/10/10 02:02:29;;;;;;;4.23;2.23;;;7.90;99.90;;;;;;5035524;28;20466;-48
2022/10/10 02:05:00;;;;;;;8.70;3.17;;;7.90;99.90;;;;;;5045804;28;20465;-47
2022/10/10 02:07:32;;;;;;;6.97;3.27;;;7.90;99.90;;;;;;5044354;28;20532;-48
2022/10/10 02:10:02;;;;;;;4.20;2.83;;;7.80;99.90;;;;;;5045353;28;20519;-48
2022/10/10 02:12:30;;;;;;;11.03;3.90;;;7.90;99.90;;;;;;5042846;28;20467;-48
2022/10/10 02:15:04;;;;;;;8.70;3.00;;;7.90;99.90;;;;;;5036813;28;20466;-48
2022/10/10 02:17:34;;;;;;;5.33;2.83;;;7.90;99.90;;;;;;5038241;28;21053;-48
2022/10/10 02:20:01;;;;;;;4.83;2.50;;;7.90;99.90;;;;;;5046473;28;20461;-48
2022/10/10 02:22:29;;;;;;;5.50;3.03;;;7.80;99.90;;;;;;5041153;28;20469;-48
2022/10/10 02:24:56;;;;;;;8.90;2.80;;;7.80;99.90;;;;;;5044680;28;20461;-48
2022/10/10 02:27:28;;;;;;;7.40;3.10;;;7.80;99.90;;;;;;5042805;28;20486;-48
2022/10/10 02:29:59;;;;;;;5.83;3.13;;;7.80;99.90;;;;;;5043019;28;21017;-49
2022/10/10 02:32:31;;;;;;;5.90;2.70;;;7.70;99.90;;;;;;5046741;28;20462;-48
2022/10/10 02:35:05;;;;;;;5.07;3.20;;;7.60;99.90;;;;;;5042875;28;20461;-48
2022/10/10 02:37:33;;;;;;;6.27;3.13;;;7.70;99.90;;;;;;5036750;28;20467;-48
2022/10/10 02:40:04;;;;;;;7.43;3.03;;;7.60;99.90;;;;;;5040176;28;20509;-48
2022/10/10 02:42:31;;;;;;;3.90;2.70;;;7.60;99.90;;;;;;5045332;28;20523;-49
2022/10/10 02:44:59;;;;;;;6.87;3.13;;;7.60;99.90;;;;;;5045633;28;20457;-48
2022/10/10 02:47:26;;;;;;;4.50;2.93;;;7.60;99.90;;;;;;5050158;28;20512;-49
2022/10/10 02:49:53;;;;;;;9.67;3.17;;;7.60;99.90;;;;;;5035386;28;20461;-49
2022/10/10 02:52:19;;;;;;;5.90;3.27;;;7.60;99.90;;;;;;5046695;28;20535;-48
2022/10/10 02:54:46;;;;;;;7.03;3.10;;;7.50;99.90;;;;;;5042110;28;20511;-49
2022/10/10 02:57:13;;;;;;;4.83;2.90;;;7.50;99.90;;;;;;5042419;28;20644;-48
2022/10/10 02:59:39;;;;;;;4.23;2.60;;;7.50;99.90;;;;;;5046189;28;20462;-48
2022/10/10 03:02:08;;;;;;;8.90;3.13;;;7.40;99.90;;;;;;5044612;28;20458;-48
2022/10/10 03:04:34;;;;;;;6.30;2.93;;;7.40;99.90;;;;;;5046273;28;20454;-49
2022/10/10 03:07:01;;;;;;;6.00;3.13;;;7.40;99.90;;;;;;5053224;28;20535;-49
2022/10/10 03:09:28;;;;;;;5.60;3.00;;;7.30;99.90;;;;;;5047504;28;20825;-48
2022/10/10 03:11:54;;;;;;;6.33;3.13;;;7.40;99.90;;;;;;5048431;28;20535;-48
2022/10/10 03:14:21;;;;;;;6.60;3.20;;;7.40;99.90;;;;;;5050616;28;20461;-49
2022/10/10 03:16:47;;;;;;;12.17;3.57;;;7.40;99.90;;;;;;5043827;28;21050;-49
2022/10/10 03:19:15;;;;;;;7.77;3.10;;;7.40;99.90;;;;;;5046231;28;20461;-48
2022/10/10 03:21:42;;;;;;;8.80;3.60;;;7.40;99.90;;;;;;5047100;28;20551;-49
2022/10/10 03:24:08;;;;;;;4.00;2.67;;;7.30;99.90;;;;;;5046961;28;21714;-50
2022/10/10 03:26:35;;;;;;;5.37;2.80;;;7.30;99.90;;;;;;5046180;28;20549;-49
2022/10/10 03:29:02;;;;;;;6.37;3.13;;;7.30;99.90;;;;;;5048921;28;20515;-49
2022/10/10 03:31:29;;;;;;;4.03;2.80;;;7.20;99.90;;;;;;5045962;28;20467;-49
2022/10/10 03:33:56;;;;;;;3.80;2.80;;;7.20;99.90;;;;;;5047007;28;20462;-48
2022/10/10 03:36:24;;;;;;;4.03;2.90;;;7.20;99.90;;;;;;5044001;28;20473;-49
2022/10/10 03:38:50;;;;;;;4.07;3.00;;;7.20;99.90;;;;;;5046432;28;20458;-48
2022/10/10 03:41:17;;;;;;;3.50;2.50;;;7.20;99.90;;;;;;5048621;28;20968;-48
2022/10/10 03:43:43;;;;;;;9.40;3.20;;;7.30;99.90;;;;;;5050743;28;20535;-49
2022/10/10 03:46:10;;;;;;;4.63;3.10;;;7.20;99.90;;;;;;5049908;28;20461;-49
2022/10/10 03:48:36;;;;;;;7.13;3.13;;;7.20;99.90;;;;;;5048677;28;20519;-49
2022/10/10 03:51:03;;;;;;;9.03;2.90;;;7.20;99.90;;;;;;5048610;28;20461;-48
2022/10/10 03:53:31;;;;;;;7.27;3.13;;;7.20;99.90;;;;;;5048777;28;20828;-49
2022/10/10 03:55:58;;;;;;;7.70;4.20;;;7.10;99.90;;;;;;5047699;28;20456;-49
2022/10/10 03:58:24;;;;;;;5.87;3.03;;;7.10;99.90;;;;;;5044371;28;20499;-48
2022/10/10 04:00:55;;;;;;;3.83;3.20;;;7.10;99.90;;;;;;5048253;28;20979;-48
2022/10/10 04:03:22;;;;;;;7.40;2.83;;;7.00;99.90;;;;;;5044664;28;20469;-49
2022/10/10 04:05:49;;;;;;;6.10;3.23;;;6.90;99.90;;;;;;5047556;28;20965;-49
2022/10/10 04:08:16;;;;;;;5.07;2.90;;;7.00;99.90;;;;;;5042587;28;20538;-48
2022/10/10 04:10:47;;;;;;;8.33;2.90;;;6.90;99.90;;;;;;5048091;28;20462;-49
2022/10/10 04:13:13;;;;;;;4.47;3.47;;;6.90;99.90;;;;;;5040711;28;20463;-49
2022/10/10 04:15:40;;;;;;;5.50;3.07;;;6.80;99.90;;;;;;5043238;28;20462;-49
2022/10/10 04:18:07;;;;;;;5.40;3.07;;;6.80;99.90;;;;;;5043891;28;20478;-50
2022/10/10 04:20:34;;;;;;;7.07;3.13;;;6.80;99.90;;;;;;5039245;28;20466;-50
2022/10/10 04:23:00;;;;;;;6.43;3.17;;;6.80;99.90;;;;;;5050986;28;20462;-49
2022/10/10 04:25:27;;;;;;;7.03;3.30;;;6.80;99.90;;;;;;5052170;28;20462;-49
2022/10/10 04:27:55;;;;;;;3.20;2.40;;;6.80;99.90;;;;;;5043823;28;21060;-49
2022/10/10 04:30:22;;;;;;;6.33;3.07;;;6.80;99.90;;;;;;5045575;28;20459;-50
2022/10/10 04:32:48;;;;;;;6.07;4.00;;;6.80;99.90;;;;;;5038360;28;20525;-50
2022/10/10 04:35:15;;;;;;;7.23;3.93;;;6.70;99.90;;;;;;5049193;28;20485;-50
2022/10/10 04:37:41;;;;;;;4.73;3.20;;;6.70;99.90;;;;;;5040136;28;20477;-50
2022/10/10 04:40:09;;;;;;;6.23;3.10;;;6.70;99.90;;;;;;5047580;28;20462;-51
2022/10/10 04:42:36;;;;;;;7.60;3.60;;;6.70;98.30;;;;;;5045077;28;20463;-51
2022/10/10 04:45:05;;;;;;;11.80;3.83;;;6.60;99.90;;;;;;5045477;28;20512;-50
2022/10/10 04:47:32;;;;;;;5.20;3.57;;;6.70;92.80;;;;;;5039352;28;20490;-50
2022/10/10 04:49:59;;;;;;;7.17;3.47;;;6.70;95.30;;;;;;5036195;28;21030;-50
2022/10/10 04:52:26;;;;;;;8.70;3.40;;;6.70;93.60;;;;;;5044527;28;20454;-50
2022/10/10 04:54:52;;;;;;;8.90;3.50;;;6.60;95.20;;;;;;5041075;28;20834;-50
2022/10/10 04:57:19;;;;;;;10.87;3.03;;;6.70;93.90;;;;;;5043576;28;20478;-50
2022/10/10 04:59:45;;;;;;;4.47;2.80;;;6.70;94.50;;;;;;5044098;28;20469;-50
2022/10/10 05:02:13;;;;;;;5.70;3.83;;;6.70;97.90;;;;;;5045178;28;20466;-50
2022/10/10 05:04:40;;;;;;;8.97;3.73;;;6.70;97.90;;;;;;5039700;28;20960;-49
2022/10/10 05:07:07;;;;;;;15.20;3.27;;;6.70;96.60;;;;;;5045682;28;20987;-50
2022/10/10 05:09:34;;;;;;;6.90;3.60;;;6.70;99.30;;;;;;5038632;28;20459;-50
2022/10/10 05:12:01;;;;;;;8.70;3.20;;;6.70;95.90;;;;;;5044174;28;21013;-50
2022/10/10 05:14:28;;;;;;;4.93;3.60;;;6.70;98.50;;;;;;5048401;28;21021;-50
2022/10/10 05:16:54;;;;;;;11.17;3.27;;;6.70;97.70;;;;;;5042097;28;20478;-49
2022/10/10 05:19:22;;;;;;;6.30;3.77;;;6.70;96.70;;;;;;5045608;28;20459;-50
2022/10/10 05:21:49;;;;;;;7.87;3.77;;;6.70;99.90;;;;;;5037402;28;20509;-50
2022/10/10 05:24:16;;;;;;;6.40;3.60;;;6.70;99.90;;;;;;5037786;28;20471;-51
2022/10/10 05:26:42;;;;;;;9.13;4.13;;;6.70;99.60;;;;;;5037581;28;20892;-50
2022/10/10 05:29:09;;;;;;;10.10;4.00;;;6.70;99.90;;;;;;5047887;28;20460;-51
2022/10/10 05:31:35;;;;;;;6.20;3.80;;;6.70;99.90;;;;;;5046938;28;20466;-51
2022/10/10 05:34:02;;;;;;;8.00;3.80;;;6.70;99.90;;;;;;5044419;28;20461;-50
2022/10/10 05:36:30;;;;;;;7.90;4.10;;;6.60;99.50;;;;;;5046593;28;21026;-51
2022/10/10 05:38:56;;;;;;;6.53;3.70;;;6.60;99.90;;;;;;5043033;28;20454;-51
2022/10/10 05:41:23;;;;;;;7.47;4.07;;;6.60;99.90;;;;;;5044593;28;20466;-49
2022/10/10 05:43:50;;;;;;;7.50;4.07;;;6.60;99.90;;;;;;5047958;28;20531;-50
2022/10/10 05:46:17;;;;;;;9.03;4.30;;;6.60;97.90;;;;;;5043759;28;20458;-50
2022/10/10 05:48:43;;;;;;;10.53;4.27;;;6.60;98.30;;;;;;5043842;28;20543;-50
2022/10/10 05:51:11;;;;;;;10.57;3.60;;;6.60;99.90;;;;;;5041157;28;20564;-50
2022/10/10 05:53:39;;;;;;;9.60;4.43;;;6.60;99.90;;;;;;5044623;28;20939;-50
2022/10/10 05:56:06;;;;;;;11.40;3.90;;;6.50;99.90;;;;;;5035052;28;20896;-51
2022/10/10 05:58:33;;;;;;;9.73;4.37;;;6.50;99.90;;;;;;5038512;28;20486;-50
2022/10/10 06:01:03;;;;;;;7.30;4.00;;;6.50;97.20;;;;;;5037488;28;20457;-49
2022/10/10 06:03:30;;;;;;;8.73;4.30;;;6.50;90.60;;;;;;5041577;28;20454;-50
2022/10/10 06:05:57;;;;;;;8.77;5.67;;;6.50;95.30;;;;;;5040004;28;20462;-50
2022/10/10 06:08:24;;;;;;;11.80;5.87;;;6.50;94.20;;;;;;5041237;28;20489;-50
2022/10/10 06:10:52;;;;;;;5.33;3.90;;;6.50;93.50;;;;;;5040447;28;20472;-49
2022/10/10 06:13:20;;;;;;;10.40;4.20;;;6.50;94.40;;;;;;5042451;28;20515;-50
2022/10/10 06:15:50;;;;;;;8.17;3.80;;;6.50;90.70;;;;;;5039729;28;20462;-50
2022/10/10 06:18:16;;;;;;;7.50;4.60;;;6.50;95.30;;;;;;5039004;28;20473;-49
2022/10/10 06:20:43;;;;;;;6.33;3.83;;;6.60;94.70;;;;;;5037719;28;20461;-50
2022/10/10 06:23:09;;;;;;;9.90;3.53;;;6.60;99.40;;;;;;5033886;28;20519;-49
2022/10/10 06:25:37;;;;;;;5.83;3.73;;;6.60;99.90;;;;;;5038322;28;20462;-49
2022/10/10 06:28:05;;;;;;;9.70;5.07;;;6.70;99.90;;;;;;5040269;28;21068;-49
2022/10/10 06:30:33;;;;;;;5.93;3.53;;;6.70;99.90;;;;;;5040397;28;20458;-50
2022/10/10 06:33:00;;;;;;;7.80;4.03;;;6.80;99.90;;;;;;5044013;28;20458;-50
2022/10/10 06:35:26;;;;;;;9.87;4.53;;;6.80;99.90;;;;;;5040072;28;20446;-49
2022/10/10 06:37:53;;;;;;;5.67;4.03;;;6.80;99.90;;;;;;5054216;28;21136;-49
2022/10/10 06:40:20;;;;;;;6.40;3.77;;;6.80;99.90;;;;;;5049277;28;20461;-50
2022/10/10 06:42:46;;;;;;;11.90;3.80;;;6.90;99.90;;;;;;5044738;28;20860;-49
2022/10/10 06:45:14;;;;;;;6.10;3.37;;;6.80;99.90;;;;;;5052893;28;20603;-49
2022/10/10 06:47:41;;;;;;;5.30;3.50;;;6.90;99.90;;;;;;5051931;28;21314;-49
2022/10/10 06:50:08;;;;;;;3.53;3.23;;;6.80;99.90;;;;;;5048506;28;20452;-49
2022/10/10 06:52:34;;;;;;;6.90;4.40;;;6.80;99.90;;;;;;5047463;28;20466;-49
2022/10/10 06:55:01;;;;;;;10.70;4.10;;;6.80;99.90;;;;;;5042983;28;20465;-50
2022/10/10 06:57:28;;;;;;;6.70;4.03;;;6.80;99.90;;;;;;5040899;28;20473;-49
2022/10/10 06:59:54;;;;;;;8.00;4.43;;;6.80;99.90;;;;;;5048220;28;20465;-49
2022/10/10 07:02:23;;;;;;;8.00;4.80;;;6.90;99.90;;;;;;5046337;28;20457;-50
2022/10/10 07:04:50;;;;;;;8.30;4.53;;;6.90;99.90;;;;;;5046124;28;20945;-49
2022/10/10 07:07:17;;;;;;;9.10;5.40;;;7.00;99.90;;;;;;5046725;28;20482;-50
2022/10/10 07:09:43;;;;;;;9.60;4.90;;;7.10;99.90;;;;;;5043758;28;20465;-50
2022/10/10 07:12:10;;;;;;;8.93;3.87;;;7.20;99.90;;;;;;5044527;28;20512;-50
2022/10/10 07:14:37;;;;;;;9.80;3.67;;;7.30;99.90;;;;;;5052461;28;20540;-49
2022/10/10 07:17:03;;;;;;;9.10;4.57;;;7.40;99.90;;;;;;5042228;28;20535;-50
2022/10/10 07:19:31;;;;;;;7.47;4.40;;;7.60;99.90;;;;;;5049884;28;20964;-50
2022/10/10 07:21:58;;;;;;;6.93;4.50;;;7.80;99.90;;;;;;5052041;28;20523;-49
2022/10/10 07:24:24;;;;;;;6.80;4.10;;;7.90;99.90;;;;;;5047083;28;21123;-50
2022/10/10 07:26:53;;;;;;;6.53;4.23;;;8.10;99.90;;;;;;5051385;28;20511;-49
2022/10/10 07:29:20;;;;;;;8.80;3.67;;;8.20;99.90;;;;;;5051915;28;21066;-50
2022/10/10 07:31:47;;;;;;;5.50;3.37;;;8.30;99.90;;;;;;5043348;28;20956;-50
2022/10/10 07:34:13;;;;;;;7.47;3.97;;;8.50;99.90;;;;;;5046194;28;20524;-50
2022/10/10 07:36:42;;;;;;;6.20;3.57;;;8.60;99.90;;;;;;5052184;28;20542;-50
2022/10/10 07:39:09;;;;;;;6.97;3.90;;;8.70;99.90;;;;;;5048793;28;20481;-49
2022/10/10 07:41:35;;;;;;;11.30;4.77;;;8.80;99.90;;;;;;5053039;28;20468;-49
2022/10/10 07:44:02;;;;;;;6.80;4.53;;;8.90;99.90;;;;;;5053395;28;20461;-50
2022/10/10 07:46:32;;;;;;;9.10;4.37;;;9.10;99.90;;;;;;5046088;28;20481;-49
2022/10/10 07:48:58;;;;;;;15.70;3.80;;;9.20;99.90;;;;;;5044226;28;20478;-47
2022/10/10 07:51:25;;;;;;;8.00;3.97;;;9.30;99.90;;;;;;5048030;28;20544;-48
2022/10/10 07:53:53;;;;;;;9.90;4.40;;;9.30;99.90;;;;;;5046583;28;20504;-48
2022/10/10 07:56:20;;;;;;;15.70;4.93;;;9.30;99.90;;;;;;5041135;28;20544;-47
2022/10/10 07:58:46;;;;;;;7.97;4.40;;;9.30;99.90;;;;;;5048884;28;20457;-49
2022/10/10 08:01:13;;;;;;;9.30;4.10;;;9.40;99.90;;;;;;5047952;28;20470;-48
2022/10/10 08:03:40;;;;;;;6.20;4.17;;;9.50;99.90;;;;;;5044379;28;20477;-47
2022/10/10 08:06:09;;;;;;;8.20;4.00;;;9.50;99.90;;;;;;5047993;28;20517;-47
2022/10/10 08:08:36;;;;;;;11.10;4.30;;;9.60;99.90;;;;;;5048208;28;20933;-47
2022/10/10 08:11:06;;;;;;;8.40;3.33;;;9.60;99.90;;;;;;5046118;28;20508;-47
2022/10/10 08:13:33;;;;;;;7.90;3.87;;;9.70;99.90;;;;;;5048014;28;20519;-48
2022/10/10 08:16:00;;;;;;;6.27;3.87;;;9.70;99.90;;;;;;5048398;28;20523;-47
2022/10/10 08:18:26;;;;;;;6.63;3.30;;;9.80;99.90;;;;;;5044927;28;20454;-47
2022/10/10 08:20:59;;;;;;;10.97;4.20;;;10.00;99.90;;;;;;5048868;28;20467;-47
2022/10/10 08:23:26;;;;;;;8.07;4.40;;;10.10;99.90;;;;;;5053104;28;20467;-48
2022/10/10 08:25:52;;;;;;;4.53;3.77;;;10.20;99.90;;;;;;5044909;28;20524;-47
2022/10/10 08:28:20;;;;;;;5.87;3.70;;;10.40;99.90;;;;;;5040999;28;20947;-48
2022/10/10 08:30:47;;;;;;;9.93;4.47;;;10.60;99.90;;;;;;5033604;28;20497;-48
2022/10/10 08:33:13;;;;;;;11.83;3.93;;;10.70;80.80;;;;;;5044611;28;20471;-48
2022/10/10 08:35:40;;;;;;;8.40;3.17;;;10.80;23.10;;;;;;5048665;28;20461;-49
2022/10/10 08:38:07;;;;;;;6.13;3.60;;;11.00;26.90;;;;;;5050600;28;20489;-48
2022/10/10 08:40:41;;;;;;;9.33;3.77;;;11.10;30.70;;;;;;5048443;28;20959;-47
2022/10/10 08:43:16;;;;;;;8.30;3.60;;;11.30;25.50;;;;;;5046685;28;20871;-48
2022/10/10 08:45:44;;;;;;;7.17;3.33;;;11.70;51.30;;;;;;5045488;28;20461;-48
2022/10/10 08:48:14;;;;;;;5.77;3.77;;;12.40;78.40;;;;;;5047904;28;20482;-48
2022/10/10 08:50:45;;;;;;;6.53;3.93;;;13.60;86.60;;;;;;5047260;28;20474;-48
2022/10/10 08:53:19;;;;;;;4.80;2.77;;;14.00;99.90;;;;;;5048508;28;21021;-48
2022/10/10 08:55:46;;;;;;;8.53;3.67;;;14.40;99.90;;;;;;5035074;28;20510;-48
2022/10/10 08:58:22;;;;;;;4.53;3.50;;;13.80;99.90;;;;;;5052000;28;20455;-47
2022/10/10 09:00:54;;;;;;;6.07;3.40;;;13.50;99.90;;;;;;5039369;28;21002;-47
2022/10/10 09:03:30;;;;;;;6.43;3.50;;;13.10;99.90;;;;;;5045664;28;21022;-47
2022/10/10 09:06:11;;;;;;;4.23;2.83;;;13.00;99.90;;;;;;5045976;28;20537;-48
2022/10/10 09:08:48;;;;;;;6.37;3.00;;;12.70;99.90;;;;;;5052178;28;20480;-48
2022/10/10 09:11:27;;;;;;;3.40;3.07;;;12.70;99.90;;;;;;5041437;28;20461;-47
2022/10/10 09:14:05;;;;;;;8.33;3.30;;;12.90;99.90;;;;;;5039002;28;20595;-47
2022/10/10 09:16:40;;;;;;;13.33;3.30;;;12.90;99.90;;;;;;5045757;28;20550;-48
2022/10/10 09:19:23;;;;;;;4.40;3.10;;;12.60;99.90;;;;;;5043841;28;20975;-47
2022/10/10 09:21:53;;;;;;;6.20;3.10;;;12.80;99.90;;;;;;5047585;28;20523;-47
2022/10/10 09:24:23;;;;;;;5.40;2.77;;;13.00;99.90;;;;;;5040182;28;20473;-47
2022/10/10 09:26:54;;;;;;;11.60;3.03;;;13.00;99.90;;;;;;5040038;28;20478;-48
2022/10/10 09:29:26;;;;;;;5.00;2.80;;;13.00;99.90;;;;;;5045228;28;20888;-47
2022/10/10 09:32:00;;;;;;;6.20;3.40;;;13.10;99.90;;;;;;5042014;28;20458;-48
2022/10/10 09:34:34;;;;;;;8.73;3.63;;;13.10;99.90;;;;;;5039261;28;20849;-48
2022/10/10 09:37:02;;;;;;;5.10;3.27;;;13.20;99.90;;;;;;5037771;28;20539;-47
2022/10/10 09:39:35;;;;;;;6.20;3.80;;;13.10;99.90;;;;;;5043639;28;20932;-48
2022/10/10 09:42:04;;;;;;;9.97;3.77;;;13.30;99.90;;;;;;5042488;28;20473;-48
2022/10/10 09:44:32;;;;;;;6.97;3.43;;;13.10;99.90;;;;;;5041037;28;20458;-48
2022/10/10 09:47:00;;;;;;;6.20;2.97;;;13.20;99.90;;;;;;5035621;28;20486;-48
2022/10/10 09:49:26;;;;;;;4.10;2.80;;;13.30;99.90;;;;;;5044730;28;20527;-47
2022/10/10 09:51:53;;;;;;;8.03;3.00;;;13.30;99.90;;;;;;5047075;28;20469;-48
2022/10/10 09:54:21;;;;;;;5.20;2.70;;;13.30;99.90;;;;;;5045036;28;20528;-48
2022/10/10 09:56:50;;;;;;;10.00;3.50;;;13.30;99.90;;;;;;5041235;28;20485;-47
2022/10/10 09:59:37;;;;;;;13.70;3.50;;;13.10;99.90;;;;;;5044805;28;20508;-48
2022/10/10 10:02:13;;;;;;;4.07;3.30;;;13.10;99.90;;;;;;5040879;28;20466;-47
2022/10/10 10:04:39;;;;;;;6.60;3.13;;;13.00;94.30;;;;;;5035632;28;20461;-47
2022/10/10 10:07:18;;;;;;;9.20;3.80;;;13.00;96.40;;;;;;5040435;28;20572;-48
2022/10/10 10:09:47;;;;;;;5.00;3.10;;;13.00;95.10;;;;;;5042526;28;20477;-48
2022/10/10 10:12:15;;;;;;;6.10;3.40;;;13.00;97.20;;;;;;5045891;28;20470;-49
2022/10/10 10:14:42;;;;;;;3.63;3.33;;;13.10;95.40;;;;;;5043009;28;20940;-48
2022/10/10 10:17:13;;;;;;;9.90;2.70;;;13.10;88.40;;;;;;5044570;28;20481;-48
2022/10/10 10:19:42;;;;;;;5.43;3.47;;;13.10;92.40;;;;;;5045625;28;20462;-47
2022/10/10 10:22:25;;;;;;;15.00;4.30;;;13.30;99.30;;;;;;5041999;28;20475;-48
2022/10/10 10:24:53;;;;;;;4.90;3.90;;;13.40;99.10;;;;;;5037092;28;20470;-48
2022/10/10 10:27:21;;;;;;;15.90;3.50;;;13.40;99.90;;;;;;5042184;28;20489;-47
2022/10/10 10:29:49;;;;;;;6.90;3.20;;;13.40;99.90;;;;;;5038688;28;20490;-48
2022/10/10 10:32:37;;;;;;;4.20;2.90;;;13.30;99.90;;;;;;5046266;28;21123;-47
2022/10/10 10:35:19;;;;;;;4.83;2.60;;;13.30;99.90;;;;;;5043578;28;20446;-47
2022/10/10 10:38:01;;;;;;;7.10;3.47;;;13.50;98.80;;;;;;5049252;28;20474;-48
2022/10/10 10:40:33;;;;;;;3.63;3.20;;;13.70;99.10;;;;;;5044116;28;20450;-48
2022/10/10 10:43:22;;;;;;;5.80;3.73;;;13.70;99.90;;;;;;5046876;28;20464;-48
2022/10/10 10:46:00;;;;;;;5.80;2.83;;;13.80;99.90;;;;;;5043391;28;20453;-47
2022/10/10 10:48:33;;;;;;;4.67;3.10;;;13.90;99.90;;;;;;5048710;28;20442;-48
2022/10/10 10:51:06;;;;;;;4.30;2.80;;;14.10;99.90;;;;;;5051404;28;20476;-48
2022/10/10 10:53:43;;;;;;;8.50;2.90;;;14.20;99.90;;;;;;5051128;28;20677;-48
2022/10/10 10:56:23;;;;;;;6.30;3.20;;;14.30;99.90;;;;;;5049324;28;20457;-48
2022/10/10 10:59:10;;;;;;;5.10;2.90;;;14.50;99.90;;;;;;5046557;28;20492;-48
2022/10/10 11:01:43;;;;;;;5.10;2.97;;;14.60;99.90;;;;;;5042608;28;20465;-47
2022/10/10 11:04:26;;;;;;;6.07;3.10;;;14.60;99.90;;;;;;5043947;28;20469;-48
2022/10/10 11:07:03;;;;;;;6.90;3.40;;;14.60;99.90;;;;;;5038439;28;20564;-48
2022/10/10 11:09:35;;;;;;;5.47;2.87;;;14.70;99.90;;;;;;5038834;28;20926;-48
2022/10/10 11:12:13;;;;;;;4.23;2.80;;;14.80;99.90;;;;;;5045229;28;20535;-47
2022/10/10 11:14:49;;;;;;;4.60;2.70;;;14.90;99.90;;;;;;5043799;28;20512;-47
2022/10/10 11:17:21;;;;;;;7.47;2.47;;;15.10;99.90;;;;;;5045407;28;20477;-48
2022/10/10 11:19:55;;;;;;;4.00;2.37;;;15.10;99.90;;;;;;5041834;28;20462;-48
2022/10/10 11:22:25;;;;;;;3.23;2.93;;;15.20;99.90;;;;;;5040504;28;20470;-47
2022/10/10 11:24:57;;;;;;;7.13;3.03;;;15.20;99.90;;;;;;5038488;28;20960;-47
2022/10/10 11:27:28;;;;;;;5.30;2.40;;;15.30;99.90;;;;;;5042040;28;20540;-47
2022/10/10 11:30:04;;;;;;;4.50;2.50;;;15.30;99.90;;;;;;5040925;28;20474;-48
2022/10/10 11:32:37;;;;;;;3.80;2.77;;;15.40;99.90;;;;;;5039301;28;20480;-47
2022/10/10 11:35:26;;;;;;;5.37;2.50;;;15.30;99.90;;;;;;5046183;28;20975;-47
2022/10/10 11:37:59;;;;;;;3.60;2.60;;;15.40;99.90;;;;;;5044325;28;20482;-47
2022/10/10 11:40:47;;;;;;;5.97;2.83;;;15.30;99.90;;;;;;5044201;28;20528;-48
2022/10/10 11:43:22;;;;;;;7.60;2.47;;;15.40;99.90;;;;;;5049612;28;20542;-48
2022/10/10 11:45:55;;;;;;;4.20;2.77;;;15.40;99.90;;;;;;5041590;28;20519;-49
2022/10/10 11:48:31;;;;;;;4.37;2.50;;;15.60;99.90;;;;;;5038868;28;20477;-48
2022/10/10 11:51:04;;;;;;;9.93;2.70;;;15.60;99.90;;;;;;5040638;28;20541;-48
2022/10/10 11:53:36;;;;;;;2.83;2.17;;;15.70;99.90;;;;;;5044846;28;20464;-48
2022/10/10 11:56:10;;;;;;;6.43;2.63;;;15.70;99.90;;;;;;5044065;28;20462;-48
2022/10/10 11:58:40;;;;;;;4.60;2.80;;;16.00;99.90;;;;;;5045407;28;20945;-47
2022/10/10 12:01:14;;;;;;;15.50;3.37;;;16.40;99.90;;;;;;5040560;28;20509;-47
2022/10/10 12:03:41;;;;;;;2.57;2.30;;;16.50;99.90;;;;;;5049863;28;20877;-48
2022/10/10 12:06:25;;;;;;;13.40;2.53;;;16.30;99.90;;;;;;5038956;28;20960;-47
2022/10/10 12:08:58;;;;;;;10.03;3.00;;;16.20;99.90;;;;;;5038890;28;20454;-48
2022/10/10 12:11:31;;;;;;;7.20;3.10;;;16.00;99.90;;;;;;5044158;28;20516;-47
2022/10/10 12:14:00;;;;;;;5.20;2.97;;;16.00;99.90;;;;;;5045666;28;20458;-48
2022/10/10 12:16:29;;;;;;;7.80;2.73;;;15.90;99.90;;;;;;5046466;28;20490;-48
2022/10/10 12:19:01;;;;;;;3.70;2.40;;;16.00;99.90;;;;;;5041969;28;20536;-48
2022/10/10 12:21:31;;;;;;;7.80;3.60;;;16.00;99.90;;;;;;5045879;28;20469;-47
2022/10/10 12:24:04;;;;;;;4.93;2.97;;;16.00;99.90;;;;;;5047495;28;20481;-48
2022/10/10 12:27:07;;;;;;;8.57;3.33;;;16.10;99.90;;;;;;5044420;28;20482;-48
2022/10/10 12:29:41;;;;;;;9.03;2.97;;;16.20;99.90;;;;;;5046274;28;20477;-48
2022/10/10 12:32:25;;;;;;;4.80;2.93;;;16.30;99.90;;;;;;5035970;28;20458;-48
2022/10/10 12:35:00;;;;;;;3.73;2.90;;;16.30;99.90;;;;;;5044436;28;20988;-47
2022/10/10 12:37:29;;;;;;;6.73;2.67;;;16.40;99.90;;;;;;5044140;28;20477;-48
2022/10/10 12:40:21;;;;;;;5.20;2.60;;;16.50;99.90;;;;;;5044951;28;20936;-48
2022/10/10 12:43:03;;;;;;;3.20;2.47;;;16.70;99.90;;;;;;5046440;28;20492;-47
2022/10/10 12:45:56;;;;;;;2.60;2.27;;;16.70;99.90;;;;;;5039457;28;20509;-48
2022/10/10 12:48:23;;;;;;;6.80;2.80;;;16.60;99.90;;;;;;5047554;28;20509;-48
2022/10/10 12:50:56;;;;;;;6.53;2.63;;;16.80;99.90;;;;;;5045789;28;20494;-48
2022/10/10 12:53:27;;;;;;;6.27;2.47;;;16.80;99.90;;;;;;5041836;28;20898;-48
2022/10/10 12:55:56;;;;;;;2.93;2.30;;;16.90;99.90;;;;;;5046144;28;20504;-46
2022/10/10 12:58:27;;;;;;;4.20;2.43;;;16.90;99.90;;;;;;5045806;28;20972;-48
2022/10/10 13:00:56;;;;;;;4.07;2.53;;;16.90;99.90;;;;;;5045914;28;20803;-48
2022/10/10 13:03:30;;;;;;;9.60;2.77;;;17.00;99.90;;;;;;5046175;28;20524;-48
2022/10/10 13:06:02;;;;;;;3.30;3.00;;;17.00;99.90;;;;;;5041043;28;20470;-47
2022/10/10 13:08:30;;;;;;;2.67;2.47;;;17.20;99.90;;;;;;5041625;28;20944;-48